createdAt,value
2022-09-10T00:04:31.280Z,1.48
2022-09-10T00:09:34.759Z,1.67
2022-09-10T00:14:39.714Z,1.70
2022-09-10T00:19:44.398Z,1.60
2022-09-10T00:24:47.633Z,1.90
2022-09-10T00:29:54.480Z,1.90
2022-09-10T00:34:57.972Z,2.05
2022-09-10T00:40:02.084Z,2.33
2022-09-10T00:45:08.132Z,2.30
2022-09-10T00:50:21.616Z,1.87
2022-09-10T00:55:25.578Z,2.22
2022-09-10T01:00:31.267Z,2.70
2022-09-10T01:05:34.590Z,2.50
2022-09-10T01:10:50.667Z,2.50
2022-09-10T01:16:05.095Z,2.30
2022-09-10T01:21:25.729Z,2.38
2022-09-10T01:26:49.436Z,2.67
2022-09-10T01:32:00.585Z,3.03
2022-09-10T01:37:09.755Z,2.70
2022-09-10T01:42:14.627Z,2.80
2022-09-10T01:47:34.063Z,2.60
2022-09-10T01:52:47.334Z,2.33
2022-09-10T01:57:57.662Z,2.13
2022-09-10T02:03:14.045Z,2.13
2022-09-10T02:08:23.423Z,2.45
2022-09-10T02:13:30.863Z,1.95
2022-09-10T02:19:08.833Z,2.00
2022-09-10T02:24:13.946Z,2.05
2022-09-10T02:29:19.420Z,1.90
2022-09-10T02:34:24.703Z,2.10
2022-09-10T02:39:28.283Z,2.00
2022-09-10T02:44:32.128Z,1.73
2022-09-10T02:49:38.678Z,1.90
2022-09-10T02:54:42.812Z,2.50
2022-09-10T02:59:47.027Z,2.55
2022-09-10T03:04:51.921Z,2.42
2022-09-10T03:09:55.182Z,2.05
2022-09-10T03:14:59.145Z,2.05
2022-09-10T03:20:04.786Z,2.00
2022-09-10T03:25:09.165Z,2.10
2022-09-10T03:30:13.394Z,1.50
2022-09-10T03:35:18.702Z,1.55
2022-09-10T03:40:23.210Z,1.98
2022-09-10T03:45:27.081Z,2.40
2022-09-10T03:50:31.807Z,2.60
2022-09-10T03:55:35.145Z,3.00
2022-09-10T04:00:38.624Z,2.50
2022-09-10T04:05:44.803Z,2.80
2022-09-10T04:10:49.486Z,2.75
2022-09-10T04:15:53.322Z,2.22
2022-09-10T04:20:59.146Z,2.20
2022-09-10T04:26:03.228Z,2.40
2022-09-10T04:31:08.056Z,2.42
2022-09-10T04:36:14.300Z,2.57
2022-09-10T04:41:19.620Z,2.33
2022-09-10T04:46:24.082Z,2.43
2022-09-10T04:51:31.181Z,2.00
2022-09-10T04:56:35.013Z,2.30
2022-09-10T05:01:38.322Z,2.55
2022-09-10T05:06:43.587Z,2.70
2022-09-10T05:11:48.206Z,2.50
2022-09-10T05:16:52.216Z,2.30
2022-09-10T05:21:57.193Z,2.30
2022-09-10T05:27:00.500Z,2.13
2022-09-10T05:32:04.375Z,2.40
2022-09-10T05:37:09.256Z,2.33
2022-09-10T05:42:13.355Z,1.90
2022-09-10T05:47:16.695Z,2.33
2022-09-10T05:52:22.580Z,2.08
2022-09-10T05:57:25.991Z,2.40
2022-09-10T06:02:29.510Z,2.40
2022-09-10T06:07:34.879Z,2.63
2022-09-10T06:12:38.952Z,2.30
2022-09-10T06:17:43.148Z,2.42
2022-09-10T06:22:47.822Z,2.00
2022-09-10T06:27:51.367Z,2.10
2022-09-10T06:32:54.975Z,1.92
2022-09-10T06:37:59.841Z,2.10
2022-09-10T06:43:04.201Z,2.00
2022-09-10T06:48:44.441Z,1.30
2022-09-10T06:53:53.359Z,1.80
2022-09-10T06:59:02.208Z,1.83
2022-09-10T07:04:11.320Z,1.40
2022-09-10T07:09:16.451Z,1.53
2022-09-10T07:14:33.229Z,1.75
2022-09-10T07:19:40.615Z,1.60
2022-09-10T07:25:03.501Z,1.50
2022-09-10T07:30:16.739Z,1.42
2022-09-10T07:35:20.245Z,1.50
2022-09-10T07:40:27.792Z,1.42
2022-09-10T07:45:31.419Z,1.73
2022-09-10T07:50:38.389Z,1.30
2022-09-10T07:55:43.537Z,0.70
2022-09-10T08:00:47.150Z,1.00
2022-09-10T08:05:50.577Z,1.20
2022-09-10T08:10:56.995Z,1.33
2022-09-10T08:16:00.634Z,1.00
2022-09-10T08:21:05.844Z,0.80
2022-09-10T08:26:11.211Z,1.70
2022-09-10T08:31:14.642Z,0.95
2022-09-10T08:36:26.262Z,1.00
2022-09-10T08:41:41.509Z,0.80
2022-09-10T08:46:56.193Z,1.10
2022-09-10T08:52:06.384Z,0.98
2022-09-10T08:57:25.363Z,3.73
2022-09-10T09:02:48.954Z,1.13
2022-09-10T09:07:59.748Z,1.60
2022-09-10T09:13:44.080Z,2.00
2022-09-10T09:19:08.964Z,1.83
2022-09-10T09:24:23.629Z,1.98
2022-09-10T09:29:38.173Z,2.03
2022-09-10T09:34:45.563Z,1.83
2022-09-10T09:40:05.619Z,1.80
2022-09-10T09:45:22.391Z,1.90
2022-09-10T09:50:26.224Z,1.98
2022-09-10T09:55:35.776Z,2.00
2022-09-10T10:00:40.774Z,2.07
2022-09-10T10:05:44.401Z,1.75
2022-09-10T10:10:54.008Z,1.70
2022-09-10T10:16:14.752Z,1.60
2022-09-10T10:21:20.229Z,1.20
2022-09-10T10:26:31.290Z,1.20
2022-09-10T10:31:42.238Z,1.40
2022-09-10T10:36:53.499Z,0.80
2022-09-10T10:42:06.817Z,0.80
2022-09-10T10:47:26.805Z,0.70
2022-09-10T10:52:38.734Z,0.60
2022-09-10T10:58:02.134Z,0.57
2022-09-10T11:03:16.101Z,0.63
2022-09-10T11:08:27.238Z,1.08
2022-09-10T11:13:37.991Z,1.50
2022-09-10T11:18:48.760Z,1.30
2022-09-10T11:23:57.655Z,0.90
2022-09-10T11:29:13.225Z,0.57
2022-09-10T11:34:25.621Z,0.70
2022-09-10T11:39:35.130Z,0.80
2022-09-10T11:44:48.590Z,0.70
2022-09-10T11:50:01.013Z,2.10
2022-09-10T11:55:08.493Z,0.70
2022-09-10T12:00:16.423Z,0.95
2022-09-10T12:05:27.777Z,0.40
2022-09-10T12:10:36.424Z,0.60
2022-09-10T12:15:40.038Z,0.43
2022-09-10T12:20:50.937Z,0.60
2022-09-10T12:26:00.424Z,0.65
2022-09-10T12:31:04.884Z,0.40
2022-09-10T12:36:09.803Z,0.50
2022-09-10T12:41:14.912Z,0.40
2022-09-10T12:46:22.885Z,0.60
2022-09-10T12:51:36.186Z,0.90
2022-09-10T12:57:01.812Z,0.90
2022-09-10T13:02:19.842Z,1.33
2022-09-10T13:07:31.625Z,0.90
2022-09-10T13:12:37.609Z,0.80
2022-09-10T13:18:01.830Z,0.70
2022-09-10T13:23:21.691Z,0.73
2022-09-10T13:29:06.040Z,0.52
2022-09-10T13:34:34.598Z,1.23
2022-09-10T13:40:10.488Z,1.00
2022-09-10T13:45:23.212Z,0.75
2022-09-10T13:50:29.474Z,0.60
2022-09-10T13:55:35.103Z,0.50
2022-09-10T14:00:43.090Z,0.40
2022-09-10T14:05:50.154Z,1.23
2022-09-10T14:11:00.645Z,0.70
2022-09-10T14:16:08.625Z,1.75
2022-09-10T14:21:14.341Z,2.78
2022-09-10T14:26:24.293Z,0.90
2022-09-10T14:31:34.644Z,0.30
2022-09-10T14:36:37.900Z,0.63
2022-09-10T14:41:42.636Z,0.80
2022-09-10T14:46:51.644Z,0.67
2022-09-10T14:51:55.322Z,0.50
2022-09-10T14:57:03.708Z,0.52
2022-09-10T15:02:16.441Z,2.45
2022-09-10T15:07:19.652Z,0.50
2022-09-10T15:12:27.911Z,0.52
2022-09-10T15:17:31.174Z,0.20
2022-09-10T15:22:34.396Z,0.43
2022-09-10T15:27:39.021Z,0.68
2022-09-10T15:32:42.296Z,0.80
2022-09-10T15:37:45.530Z,1.73
2022-09-10T15:42:50.347Z,0.88
2022-09-10T15:47:54.187Z,0.60
2022-09-10T15:52:57.468Z,1.58
2022-09-10T15:58:02.951Z,1.60
2022-09-10T16:03:06.248Z,0.30
2022-09-10T16:08:09.560Z,0.80
2022-09-10T16:13:14.182Z,0.70
2022-09-10T16:18:17.395Z,0.63
2022-09-10T16:23:21.036Z,0.63
2022-09-10T16:28:27.007Z,0.63
2022-09-10T16:33:30.246Z,0.70
2022-09-10T16:38:34.654Z,0.90
2022-09-10T16:43:39.338Z,0.57
2022-09-10T16:48:43.976Z,0.40
2022-09-10T16:53:53.707Z,0.60
2022-09-10T16:58:58.548Z,0.50
2022-09-10T17:04:03.341Z,0.60
2022-09-10T17:09:06.618Z,0.60
2022-09-10T17:14:11.548Z,0.77
2022-09-10T17:19:17.578Z,0.60
2022-09-10T17:24:22.746Z,0.73
2022-09-10T17:29:27.751Z,0.68
2022-09-10T17:34:30.996Z,1.40
2022-09-10T17:39:34.293Z,0.80
2022-09-10T17:44:40.855Z,1.05
2022-09-10T17:49:44.290Z,1.00
2022-09-10T17:54:47.552Z,0.80
2022-09-10T17:59:52.137Z,0.85
2022-09-10T18:04:55.535Z,1.33
2022-09-10T18:09:58.763Z,1.50
2022-09-10T18:15:03.371Z,1.40
2022-09-10T18:20:07.706Z,1.17
2022-09-10T18:25:11.063Z,1.10
2022-09-10T18:30:16.239Z,0.90
2022-09-10T18:35:19.516Z,0.80
2022-09-10T18:40:22.738Z,0.85
2022-09-10T18:45:28.066Z,0.90
2022-09-10T18:50:31.453Z,0.70
2022-09-10T18:55:34.680Z,1.00
2022-09-10T19:00:39.969Z,1.00
2022-09-10T19:05:43.338Z,2.30
2022-09-10T19:10:46.705Z,1.23
2022-09-10T19:15:57.062Z,1.10
2022-09-10T19:21:04.830Z,1.63
2022-09-10T19:26:10.065Z,0.70
2022-09-10T19:31:17.611Z,0.77
2022-09-10T19:36:20.901Z,0.88
2022-09-10T19:41:25.676Z,0.95
2022-09-10T19:46:31.104Z,0.80
2022-09-10T19:51:36.969Z,0.80
2022-09-10T19:56:43.097Z,1.42
2022-09-10T20:01:48.028Z,0.70
2022-09-10T20:06:52.303Z,0.70
2022-09-10T20:11:55.579Z,0.60
2022-09-10T20:17:01.376Z,0.50
2022-09-10T20:22:04.705Z,0.70
2022-09-10T20:27:07.986Z,0.70
2022-09-10T20:32:12.822Z,0.70
2022-09-10T20:37:16.077Z,0.60
2022-09-10T20:42:19.362Z,0.60
2022-09-10T20:47:26.498Z,0.70
2022-09-10T20:52:29.769Z,1.00
2022-09-10T20:57:33.205Z,0.63
2022-09-10T21:02:39.282Z,0.70
2022-09-10T21:07:42.832Z,0.90
2022-09-10T21:12:46.079Z,0.70
2022-09-10T21:17:50.731Z,1.50
2022-09-10T21:22:54.452Z,0.88
2022-09-10T21:27:57.668Z,0.80
2022-09-10T21:33:02.272Z,0.98
2022-09-10T21:38:06.029Z,0.90
2022-09-10T21:43:09.874Z,0.80
2022-09-10T21:48:14.505Z,1.83
2022-09-10T21:53:18.583Z,0.90
2022-09-10T21:58:21.858Z,0.80
2022-09-10T22:03:27.220Z,0.90
2022-09-10T22:08:30.566Z,0.73
2022-09-10T22:13:34.663Z,0.80
2022-09-10T22:18:39.461Z,0.80
2022-09-10T22:23:43.029Z,0.90
2022-09-10T22:28:46.790Z,0.80
2022-09-10T22:33:55.344Z,0.80
2022-09-10T22:39:01.865Z,1.05
2022-09-10T22:44:05.910Z,1.00
2022-09-10T22:49:11.082Z,1.10
2022-09-10T22:54:14.912Z,0.70
2022-09-10T22:59:18.209Z,0.90
2022-09-10T23:04:22.788Z,0.90
2022-09-10T23:09:26.127Z,0.93
2022-09-10T23:14:29.391Z,1.10
2022-09-10T23:19:34.445Z,1.02
2022-09-10T23:24:37.701Z,0.90
2022-09-10T23:29:41.624Z,0.90
2022-09-10T23:34:46.343Z,0.80
2022-09-10T23:39:52.301Z,0.90
2022-09-10T23:44:55.860Z,0.90
2022-09-10T23:50:00.447Z,0.90
2022-09-10T23:55:03.715Z,1.08
